createdAt,value
2022-10-02T00:00:21.005Z,97.07
2022-10-02T00:10:36.001Z,96.56
2022-10-02T00:21:03.149Z,95.75
2022-10-02T00:31:12.880Z,96.35
2022-10-02T00:41:26.287Z,96.60
2022-10-02T00:51:37.235Z,97.50
2022-10-02T01:01:42.020Z,96.58
2022-10-02T01:12:00.425Z,95.49
2022-10-02T01:22:08.039Z,95.90
2022-10-02T01:32:15.737Z,96.25
2022-10-02T01:42:21.649Z,96.77
2022-10-02T01:52:26.033Z,95.96
2022-10-02T02:02:52.441Z,95.36
2022-10-02T02:13:14.630Z,94.94
2022-10-02T02:23:19.391Z,95.46
2022-10-02T02:33:51.723Z,95.92
2022-10-02T02:44:07.123Z,95.45
2022-10-02T03:04:46.636Z,95.02
2022-10-02T03:25:44.663Z,94.60
2022-10-02T03:36:26.454Z,95.08
2022-10-02T03:46:32.944Z,95.02
2022-10-02T03:56:45.841Z,94.38
2022-10-02T04:07:02.242Z,93.77
2022-10-02T04:17:19.075Z,93.42
2022-10-02T04:27:32.221Z,92.91
2022-10-02T04:38:05.161Z,92.85
2022-10-02T04:48:27.191Z,93.13
2022-10-02T04:58:40.779Z,92.89
2022-10-02T05:09:03.197Z,93.34
2022-10-02T05:20:15.927Z,93.35
2022-10-02T05:30:59.982Z,94.19
2022-10-02T05:41:04.965Z,96.07
2022-10-02T06:48:08.658Z,98.49
2022-10-02T06:58:32.173Z,99.59
2022-10-02T07:08:52.170Z,100.00
2022-10-02T07:19:15.856Z,100.00
2022-10-02T07:29:17.474Z,100.00
2022-10-02T08:14:11.249Z,96.78
2022-10-02T08:35:47.233Z,93.28
2022-10-02T08:46:04.418Z,92.57
2022-10-02T08:56:24.321Z,94.68
2022-10-02T09:29:37.724Z,92.86
2022-10-02T09:51:26.196Z,92.19
2022-10-02T10:02:03.641Z,91.19
2022-10-02T10:12:24.202Z,88.96
2022-10-02T10:22:41.560Z,87.99
2022-10-02T10:33:01.549Z,87.68
2022-10-02T10:43:08.650Z,84.64
2022-10-02T10:53:35.255Z,85.78
2022-10-02T11:03:39.982Z,86.67
2022-10-02T11:13:49.783Z,86.72
2022-10-02T11:23:57.552Z,87.07
2022-10-02T11:34:19.824Z,84.99
2022-10-02T11:44:52.991Z,84.24
2022-10-02T11:55:16.350Z,84.19
2022-10-02T12:05:32.973Z,81.77
2022-10-02T12:15:56.401Z,80.96
2022-10-02T12:26:29.732Z,78.00
2022-10-02T12:36:42.498Z,79.07
2022-10-02T12:47:05.597Z,80.55
2022-10-02T12:57:51.030Z,78.28
2022-10-02T13:08:09.761Z,77.70
2022-10-02T13:18:35.633Z,77.65
2022-10-02T13:28:56.758Z,77.17
2022-10-02T13:39:07.463Z,76.13
2022-10-02T13:49:09.221Z,76.44
2022-10-02T13:59:28.357Z,77.02
2022-10-02T14:09:39.508Z,77.85
2022-10-02T14:19:53.632Z,77.96
2022-10-02T14:52:53.951Z,77.48
2022-10-02T15:03:23.152Z,77.48
2022-10-02T15:13:43.937Z,77.62
2022-10-02T15:23:47.030Z,78.09
2022-10-02T15:33:48.696Z,78.77
2022-10-02T15:44:03.329Z,79.53
2022-10-02T15:54:24.406Z,78.81
2022-10-02T16:04:33.053Z,78.45
2022-10-02T16:15:00.911Z,78.54
2022-10-02T16:25:14.924Z,77.95
2022-10-02T16:35:24.299Z,78.30
2022-10-02T16:45:44.458Z,78.27
2022-10-02T16:55:51.074Z,79.12
2022-10-02T17:06:11.396Z,80.95
2022-10-02T17:16:21.415Z,82.62
2022-10-02T17:26:26.152Z,85.06
2022-10-02T17:36:35.772Z,85.08
2022-10-02T17:57:17.882Z,85.64
2022-10-02T18:07:31.705Z,86.25
2022-10-02T18:17:47.461Z,87.02
2022-10-02T18:27:54.118Z,86.98
2022-10-02T18:38:18.159Z,86.56
2022-10-02T18:48:25.644Z,85.29
2022-10-02T18:58:32.823Z,85.76
2022-10-02T19:08:54.842Z,85.69
2022-10-02T19:19:18.672Z,86.15
2022-10-02T19:29:25.851Z,86.89
2022-10-02T19:39:34.841Z,85.04
2022-10-02T19:49:39.546Z,87.19
2022-10-02T19:59:44.395Z,86.56
2022-10-02T20:09:48.457Z,86.68
2022-10-02T20:19:52.866Z,87.08
2022-10-02T20:29:57.569Z,88.07
2022-10-02T20:40:07.895Z,87.78
2022-10-02T20:50:09.444Z,88.19
2022-10-02T21:00:21.328Z,88.87
2022-10-02T21:10:40.587Z,88.29
2022-10-02T21:20:51.953Z,88.18
2022-10-02T21:31:04.335Z,88.09
2022-10-02T21:41:21.916Z,88.02
2022-10-02T21:51:42.243Z,87.62
2022-10-02T22:02:07.235Z,87.94
2022-10-02T22:12:21.976Z,87.52
2022-10-02T22:22:26.771Z,86.93
2022-10-02T22:32:46.682Z,87.20
2022-10-02T22:42:56.796Z,86.69
2022-10-02T22:53:04.984Z,86.80
2022-10-02T23:03:20.833Z,87.42
2022-10-02T23:13:26.603Z,87.69
2022-10-02T23:23:46.520Z,88.84
2022-10-02T23:34:04.362Z,88.79
2022-10-02T23:44:17.890Z,88.56
2022-10-02T23:54:19.422Z,89.94
